Griffith Spring, Arkansas
Current Conditions -  °F | °C
As of 9:44 PM on Monday 22 Dec 2014 (Local Time) from KPBF Reporting Station
Moderate Fog Moderate Fog  
Wind Chill: 52°   Ceiling: 3200
Heat Index: 52°   Visibility: 0.5mi
Dew Point: 51°   Wind: 3mph
Humidity: 97%   Direction: 280°W
Pressure: 29.65"   Gusts: NA
Location:  33.924°N, 91.8685°W
Report Text: KPBF 230344Z AUTO 28003KT 1/2SM FG SCT004 BKN032 OVC060 11/11 A2965 RMK AO2 T01110106
Loading
Personal Weather Stations






























Interactive Weather Map New forecast layout! Learn more

10-Day Weather Forecast

Advertisements
Track Severe Weather on mobile